Flight Track Log - Related Links

Times and Time Zones

All times are in EDT time to prevent confusion due to time zone crossing. See the N976JW flight status page for this flight to view local times or setup timezone preferences in your user account.

Time Position Orientation Groundspeed Altitude Reporting Facility
EDT Latitude Longitude Course Direction KTS MPH feet Rate Location/Type
Wed 06:46:15 PM 30.4562 -89.0355 28° Northeast  Level FlightAware Approximate
Wed 06:47:15 PM 30.4986 -89.0055 28° Northeast  Level FlightAware Approximate
Wed 06:48:15 PM 30.5345 -88.9657 26° Northeast  Level FlightAware Approximate
Wed 06:49:15 PM 30.5769 -88.9357 26° Northeast  Level FlightAware Approximate
Wed 06:50:15 PM 30.6192 -88.9056 25° Northeast  Level FlightAware Approximate
Wed 06:51:15 PM 30.6560 -88.8689 23° Northeast  Level FlightAware Approximate
Wed 06:52:15 PM 30.6985 -88.8390 21° North  Level FlightAware Approximate
Wed 06:53:15 PM 30.7409 -88.8091 19° North  Level FlightAware Approximate
Wed 06:54:15 PM 30.7833 -88.7791 16° North  Level FlightAware Approximate
Wed 06:55:15 PM 30.8292 -88.7579 15° North  Level FlightAware Approximate
Wed 06:56:15 PM 30.8715 -88.7276 North  Level FlightAware Approximate
Wed 06:57:15 PM 30.9138 -88.6973 346° North  Level FlightAware Approximate
Wed 06:58:15 PM 30.9561 -88.6670 291° West  Level FlightAware Approximate
Wed 06:59:15 PM 30.9983 -88.6366 248° West  Level FlightAware Approximate
Wed 07:00:06 PM 30.9717 -88.7142 15° North 185 213 7,200  Level Houston Center
Wed 07:01:06 PM 31.0233 -88.6983 11° North 198 228 7,200 -50 Level Houston Center
Wed 07:02:06 PM 31.0733 -88.6869 13° North 198 228 7,100  Descending Houston Center
Wed 07:03:06 PM 31.1250 -88.6733 14° North 193 222 7,200 50 Climbing Houston Center
Wed 07:04:06 PM 31.1706 -88.6597 12° North 188 216 7,200  Level Houston Center
Wed 07:06:05 PM 31.2758 -88.6344 North 194 223 7,200 -34 Level Memphis Center
Wed 07:07:05 PM 31.3217 -88.6261 10° North 194 223 7,100  Descending Memphis Center
Wed 07:08:05 PM 31.3717 -88.6156 41° Northeast 182 209 7,200 50 Climbing Memphis Center
Wed 07:09:05 PM 31.4108 -88.5758 34° Northeast 177 204 7,200  Level Memphis Center
Wed 07:11:16 PM 31.5033 -88.5031 36° Northeast 184 212 7,200  Level Atlanta Center
Wed 07:12:16 PM 31.5464 -88.4661 34° Northeast 179 206 7,200  Level Atlanta Center
Wed 07:13:16 PM 31.5892 -88.4317 32° Northeast 184 212 7,200  Level Atlanta Center
Wed 07:14:16 PM 31.6322 -88.3997 39° Northeast 184 212 7,200 -50 Level Atlanta Center
Wed 07:15:16 PM 31.6711 -88.3625 33° Northeast 184 212 7,100  Descending Atlanta Center
Wed 07:16:16 PM 31.7139 -88.3303 34° Northeast 174 200 7,200 50 Climbing Atlanta Center
Wed 07:17:16 PM 31.7547 -88.2981 36° Northeast 174 200 7,200  Level Atlanta Center
Wed 07:18:16 PM 31.7975 -88.2611 38° Northeast 174 200 7,200  Level Atlanta Center
Wed 07:19:16 PM 31.8386 -88.2239 33° Northeast 174 200 7,200  Level Atlanta Center
Wed 07:20:16 PM 31.8814 -88.1917 38° Northeast 174 200 7,200  Level Atlanta Center
Wed 07:21:16 PM 31.9222 -88.1544 33° Northeast 179 206 7,200  Level Atlanta Center
Wed 07:22:16 PM 31.9672 -88.1197 36° Northeast 179 206 7,200  Level Atlanta Center
Wed 07:23:16 PM 32.0081 -88.0850 35° Northeast 179 206 7,200  Level Atlanta Center
Wed 07:24:16 PM 32.0531 -88.0478 35° Northeast 179 206 7,200 -50 Level Atlanta Center
Wed 07:25:16 PM 32.0958 -88.0128 36° Northeast 179 206 7,100  Descending Atlanta Center
Wed 07:26:16 PM 32.1367 -87.9781 34° Northeast 174 200 7,200  Climbing Atlanta Center
Wed 07:27:16 PM 32.1775 -87.9453 35° Northeast 174 200 7,100  Descending Atlanta Center
Wed 07:28:16 PM 32.2203 -87.9103 37° Northeast 174 200 7,200 50 Climbing Atlanta Center
Wed 07:29:16 PM 32.2589 -87.8753 35° Northeast 174 200 7,200 -50 Level Atlanta Center
Wed 07:30:16 PM 32.3017 -87.8403 35° Northeast 174 200 7,100  Descending Atlanta Center
Wed 07:31:16 PM 32.3444 -87.8053 38° Northeast 174 200 7,200  Climbing Atlanta Center
Wed 07:32:16 PM 32.3853 -87.7675 31° Northeast 174 200 7,100  Descending Atlanta Center
Wed 07:33:16 PM 32.4281 -87.7375 36° Northeast 174 200 7,200 50 Climbing Atlanta Center
Wed 07:34:16 PM 32.4686 -87.7022 41° Northeast 174 200 7,200  Level Atlanta Center
Wed 07:35:16 PM 32.5117 -87.6572 38° Northeast 187 215 7,200 -50 Level Atlanta Center
Wed 07:36:16 PM 32.5503 -87.6217 35° Northeast 187 215 7,100 -300 Descending Atlanta Center
Wed 07:37:16 PM 32.5931 -87.5864 37° Northeast 182 209 6,600 -500 Descending Atlanta Center
Wed 07:38:16 PM 32.6381 -87.5464 33° Northeast 188 216 6,100 -531 Descending Atlanta Center
Wed 07:39:09 PM 32.6744 -87.5183 37° Northeast 197 227 5,600 -450 Descending Atlanta Center
Wed 07:40:16 PM 32.7300 -87.4686 37° Northeast 193 222 5,200 -189 Descending Atlanta Center
Wed 07:41:16 PM 32.7728 -87.4306 34° Northeast 193 222 5,200  Level Atlanta Center
Wed 07:42:16 PM 32.8133 -87.3978 36° Northeast 187 215 5,200  Level Atlanta Center
Wed 07:43:16 PM 32.8539 -87.3622 34° Northeast 181 208 5,200  Level Atlanta Center
Wed 07:44:16 PM 32.8944 -87.3292 35° Northeast 181 208 5,200  Level Atlanta Center
Wed 07:45:16 PM 32.9372 -87.2936 37° Northeast 176 203 5,200  Level Atlanta Center
Wed 07:46:16 PM 32.9778 -87.2578 38° Northeast 176 203 5,200  Level Atlanta Center
Wed 07:47:16 PM 33.0164 -87.2222 37° Northeast 176 203 5,200  Level Atlanta Center
Wed 07:48:16 PM 33.0569 -87.1864 49° Northeast 176 203 5,200  Level Atlanta Center
Wed 07:49:21 PM 33.0917 -87.1381 43° Northeast 181 208 5,200  Level Atlanta Center
Wed 07:50:22 PM 33.1303 -87.0947 43° Northeast 179 206 5,200  Level Atlanta Center
Wed 07:51:22 PM 33.1689 -87.0517 43° Northeast 181 208 5,200  Level Atlanta Center
Wed 07:52:23 PM 33.2075 -87.0081 35° Northeast 183 211 5,200  Level Atlanta Center
Wed 07:53:24 PM 33.2478 -86.9747 45° Northeast 182 209 5,200  Level Atlanta Center
Wed 07:54:24 PM 33.2822 -86.9336 37° Northeast 182 209 5,200  Level Atlanta Center
Wed 07:55:25 PM 33.3250 -86.8953 40° Northeast 182 209 5,200  Level Atlanta Center
Wed 07:56:25 PM 33.3633 -86.8567 40° Northeast 182 209 5,200 -99 Level Atlanta Center
Wed 07:57:26 PM 33.4019 -86.8183 41° Northeast 182 209 5,000 -344 Descending Atlanta Center
Wed 07:58:27 PM 33.4444 -86.7747 37° Northeast 194 223 4,500 -397 Descending Atlanta Center
Wed 07:59:27 PM 33.4892 -86.7339 25° Northeast 194 223 4,200 -744 Descending Atlanta Center
Wed 08:00:28 PM 33.5358 -86.7081 346° North 189 217 3,000 -1,339 Descending Atlanta Center
Wed 08:01:28 PM 33.5814 -86.7217 346° North 165 190 1,500 -1,500 Descending Atlanta Center

Login

Don't have an account? Register now (free) for customized features, flight alerts, and more!